createdAt,value
2019-01-22T00:01:07.093Z,-1.10
2019-01-22T00:03:38.605Z,-1.10
2019-01-22T00:06:10.094Z,-1.10
2019-01-22T00:08:41.700Z,-1.20
2019-01-22T00:11:13.147Z,-1.20
2019-01-22T00:13:44.612Z,-1.20
2019-01-22T00:16:28.137Z,-1.20
2019-01-22T00:18:59.599Z,-1.20
2019-01-22T00:21:43.483Z,-1.30
2019-01-22T00:24:15.047Z,-1.30
2019-01-22T00:26:46.485Z,-1.30
2019-01-22T00:29:18.932Z,-1.30
2019-01-22T00:31:50.253Z,-1.40
2019-01-22T00:34:21.828Z,-1.40
2019-01-22T00:36:53.310Z,-1.50
2019-01-22T00:39:25.326Z,-1.50
2019-01-22T00:41:56.895Z,-1.50
2019-01-22T00:47:07.201Z,-1.50
2019-01-22T00:49:38.858Z,-1.60
2019-01-22T00:52:10.409Z,-1.60
2019-01-22T00:54:41.792Z,-1.60
2019-01-22T00:57:13.223Z,-1.60
2019-01-22T00:59:44.608Z,-1.60
2019-01-22T01:02:17.658Z,-1.70
2019-01-22T01:05:00.932Z,-1.70
2019-01-22T01:07:32.499Z,-1.70
2019-01-22T01:10:05.136Z,-1.80
2019-01-22T01:12:46.784Z,-1.80
2019-01-22T01:15:18.186Z,-1.80
2019-01-22T01:17:49.671Z,-1.80
2019-01-22T01:20:22.058Z,-1.90
2019-01-22T01:23:05.256Z,-1.90
2019-01-22T01:25:36.697Z,-1.90
2019-01-22T01:28:08.141Z,-1.90
2019-01-22T01:30:51.219Z,-1.90
2019-01-22T01:33:22.699Z,-1.90
2019-01-22T01:35:54.069Z,-1.90
2019-01-22T01:38:25.469Z,-1.90
2019-01-22T01:41:09.229Z,-1.90
2019-01-22T01:43:41.531Z,-1.90
2019-01-22T01:46:24.921Z,-1.90
2019-01-22T01:48:56.628Z,-1.90
2019-01-22T01:51:27.972Z,-1.90
2019-01-22T01:54:13.958Z,-1.90
2019-01-22T01:56:45.593Z,-1.90
2019-01-22T01:59:16.981Z,-1.90
2019-01-22T02:01:48.464Z,-1.90
2019-01-22T02:04:19.863Z,-1.90
2019-01-22T02:06:51.215Z,-1.90
2019-01-22T02:09:22.724Z,-1.90
2019-01-22T02:11:54.088Z,-1.90
2019-01-22T02:14:32.215Z,-2.00
2019-01-22T02:17:23.140Z,-2.00
2019-01-22T02:20:13.376Z,-2.00
2019-01-22T02:23:13.355Z,-2.00
2019-01-22T02:26:00.717Z,-2.00
2019-01-22T02:28:56.905Z,-2.00
2019-01-22T02:31:56.748Z,-2.10
2019-01-22T02:34:39.934Z,-2.10
2019-01-22T02:37:32.218Z,-2.10
2019-01-22T02:40:34.629Z,-2.10
2019-01-22T02:43:58.949Z,-2.10
2019-01-22T02:47:09.553Z,-2.10
2019-01-22T02:49:55.106Z,-2.20
2019-01-22T02:52:49.573Z,-2.20
2019-01-22T02:55:52.031Z,-2.20
2019-01-22T02:59:13.586Z,-2.20
2019-01-22T03:02:37.597Z,-2.20
2019-01-22T03:05:59.671Z,-2.20
2019-01-22T03:08:43.077Z,-2.20
2019-01-22T03:11:58.637Z,-2.20
2019-01-22T03:14:41.786Z,-2.20
2019-01-22T03:17:25.304Z,-2.20
2019-01-22T03:20:25.166Z,-2.20
2019-01-22T03:23:20.474Z,-2.20
2019-01-22T03:26:19.405Z,-2.30
2019-01-22T03:29:27.537Z,-2.30
2019-01-22T03:32:10.348Z,-2.30
2019-01-22T03:35:21.245Z,-2.30
2019-01-22T03:38:32.407Z,-2.30
2019-01-22T03:41:35.788Z,-2.30
2019-01-22T03:44:32.938Z,-2.30
2019-01-22T03:47:48.335Z,-2.30
2019-01-22T03:51:09.757Z,-2.30
2019-01-22T03:54:26.418Z,-2.30
2019-01-22T03:57:48.793Z,-2.30
2019-01-22T04:00:43.017Z,-2.30
2019-01-22T04:03:14.502Z,-2.30
2019-01-22T04:05:47.843Z,-2.30
2019-01-22T04:08:19.285Z,-2.30
2019-01-22T04:11:17.052Z,-2.40
2019-01-22T04:13:48.521Z,-2.40
2019-01-22T04:16:19.902Z,-2.40
2019-01-22T04:18:52.536Z,-2.40
2019-01-22T04:21:28.405Z,-2.40
2019-01-22T04:24:28.862Z,-2.40
2019-01-22T04:27:10.489Z,-2.40
2019-01-22T04:29:56.992Z,-2.40
2019-01-22T04:32:53.899Z,-2.40
2019-01-22T04:35:53.947Z,-2.40
2019-01-22T04:38:38.010Z,-2.50
2019-01-22T04:41:34.993Z,-2.50
2019-01-22T04:44:51.361Z,-2.40
2019-01-22T04:47:55.698Z,-2.40
2019-01-22T04:50:36.979Z,-2.40
2019-01-22T04:53:44.807Z,-2.40
2019-01-22T04:56:45.030Z,-2.40
2019-01-22T05:00:15.589Z,-2.40
2019-01-22T05:03:06.621Z,-2.40
2019-01-22T05:06:00.100Z,-2.50
2019-01-22T05:09:15.863Z,-2.40
2019-01-22T05:12:20.270Z,-2.40
2019-01-22T05:15:30.633Z,-2.40
2019-01-22T05:18:32.249Z,-2.50
2019-01-22T05:21:56.485Z,-2.40
2019-01-22T05:24:40.678Z,-2.40
2019-01-22T05:27:23.628Z,-2.40
2019-01-22T05:30:12.658Z,-2.40
2019-01-22T05:32:54.625Z,-2.40
2019-01-22T05:35:52.761Z,-2.40
2019-01-22T05:39:02.378Z,-2.40
2019-01-22T05:42:01.734Z,-2.40
2019-01-22T05:45:07.962Z,-2.40
2019-01-22T05:47:51.388Z,-2.40
2019-01-22T05:50:51.704Z,-2.40
2019-01-22T05:53:35.014Z,-2.40
2019-01-22T05:56:11.577Z,-2.40
2019-01-22T05:58:54.906Z,-2.40
2019-01-22T06:01:30.389Z,-2.40
2019-01-22T06:04:13.994Z,-2.40
2019-01-22T06:07:29.408Z,-2.30
2019-01-22T06:10:12.726Z,-2.30
2019-01-22T06:13:07.077Z,-2.30
2019-01-22T06:16:14.223Z,-2.30
2019-01-22T06:19:29.318Z,-2.30
2019-01-22T06:22:38.986Z,-2.20
2019-01-22T06:25:31.013Z,-2.20
2019-01-22T06:28:43.710Z,-2.20
2019-01-22T06:31:46.885Z,-2.20
2019-01-22T06:35:00.295Z,-2.20
2019-01-22T06:37:41.684Z,-2.20
2019-01-22T06:40:37.996Z,-2.20
2019-01-22T06:43:40.152Z,-2.20
2019-01-22T06:46:22.709Z,-2.20
2019-01-22T06:49:44.225Z,-2.20
2019-01-22T06:52:41.652Z,-2.20
2019-01-22T06:55:24.292Z,-2.20
2019-01-22T06:58:07.228Z,-2.20
2019-01-22T07:01:19.493Z,-2.10
2019-01-22T07:04:13.764Z,-2.10
2019-01-22T07:07:38.581Z,-2.10
2019-01-22T07:10:35.220Z,-2.10
2019-01-22T07:13:39.857Z,-2.00
2019-01-22T07:16:22.815Z,-2.00
2019-01-22T07:19:38.385Z,-2.00
2019-01-22T07:22:49.962Z,-1.90
2019-01-22T07:26:02.547Z,-1.90
2019-01-22T07:28:49.489Z,-1.80
2019-01-22T07:31:33.198Z,-1.80
2019-01-22T07:34:32.940Z,-1.70
2019-01-22T07:37:30.112Z,-1.70
2019-01-22T07:40:32.145Z,-1.70
2019-01-22T07:43:15.102Z,-1.60
2019-01-22T07:46:22.781Z,-1.60
2019-01-22T07:49:30.844Z,-1.60
2019-01-22T07:52:13.610Z,-1.50
2019-01-22T07:55:21.942Z,-1.50
2019-01-22T07:58:34.569Z,-1.50
2019-01-22T08:01:17.884Z,-1.50
2019-01-22T08:04:39.729Z,-1.40
2019-01-22T08:07:20.352Z,-1.40
2019-01-22T08:10:08.995Z,-1.40
2019-01-22T08:12:51.867Z,-1.30
2019-01-22T08:15:34.769Z,-1.30
2019-01-22T08:18:18.508Z,-1.20
2019-01-22T08:21:01.810Z,-1.20
2019-01-22T08:23:53.585Z,-1.10
2019-01-22T08:27:01.730Z,-1.10
2019-01-22T08:30:13.093Z,-1.00
2019-01-22T08:33:33.706Z,-0.90
2019-01-22T08:36:48.767Z,-0.90
2019-01-22T08:39:47.790Z,-0.80
2019-01-22T08:42:44.668Z,-0.80
2019-01-22T08:45:39.699Z,-0.70
2019-01-22T08:48:42.867Z,-0.70
2019-01-22T08:51:32.274Z,-0.60
2019-01-22T08:54:43.254Z,-0.60
2019-01-22T08:58:01.870Z,-0.50
2019-01-22T09:00:56.129Z,-0.50
2019-01-22T09:03:48.716Z,-0.40
2019-01-22T09:06:41.016Z,-0.40
2019-01-22T09:09:25.173Z,-0.30
2019-01-22T09:12:27.829Z,-0.30
2019-01-22T09:15:11.337Z,-0.20
2019-01-22T09:18:20.999Z,-0.10
2019-01-22T09:21:39.395Z,0.00
2019-01-22T09:24:47.721Z,0.00
2019-01-22T09:27:39.717Z,0.10
2019-01-22T09:30:32.800Z,0.10
2019-01-22T09:33:35.155Z,0.20
2019-01-22T09:36:43.125Z,0.20
2019-01-22T09:39:15.884Z,0.30
2019-01-22T09:41:47.552Z,0.30
2019-01-22T09:44:19.952Z,0.40
2019-01-22T09:46:51.364Z,0.40
2019-01-22T09:49:22.835Z,0.40
2019-01-22T09:52:06.222Z,0.40
2019-01-22T09:54:37.681Z,0.40
2019-01-22T09:57:09.061Z,0.40
2019-01-22T09:59:40.461Z,0.40
2019-01-22T10:02:23.887Z,0.40
2019-01-22T10:04:55.392Z,0.40
2019-01-22T10:07:26.740Z,0.40
2019-01-22T10:09:58.176Z,0.40
2019-01-22T10:12:29.553Z,0.40
2019-01-22T10:15:00.976Z,0.40
2019-01-22T10:17:32.273Z,0.50
2019-01-22T10:20:04.837Z,0.60
2019-01-22T10:22:36.202Z,0.60
2019-01-22T10:25:08.437Z,0.60
2019-01-22T10:27:39.828Z,0.70
2019-01-22T10:30:13.315Z,0.70
2019-01-22T10:32:44.685Z,0.70
2019-01-22T10:35:16.297Z,0.70
2019-01-22T10:37:47.821Z,0.70
2019-01-22T10:40:20.796Z,0.70
2019-01-22T10:42:52.231Z,0.70
2019-01-22T10:45:23.710Z,0.70
2019-01-22T10:47:55.065Z,0.70
2019-01-22T10:50:27.436Z,0.70
2019-01-22T10:52:58.775Z,0.70
2019-01-22T10:55:36.240Z,0.70
2019-01-22T10:58:03.813Z,0.70
2019-01-22T11:00:35.428Z,0.80
2019-01-22T11:03:06.802Z,0.70
2019-01-22T11:05:40.458Z,0.80
2019-01-22T11:08:24.009Z,0.80
2019-01-22T11:10:55.397Z,0.80
2019-01-22T11:13:38.761Z,0.80
2019-01-22T11:16:10.184Z,0.80
2019-01-22T11:18:41.577Z,0.80
2019-01-22T11:21:24.771Z,0.80
2019-01-22T11:23:56.170Z,0.80
2019-01-22T11:26:27.627Z,0.90
2019-01-22T11:29:10.813Z,0.90
2019-01-22T11:31:42.208Z,0.90
2019-01-22T11:34:13.610Z,0.90
2019-01-22T11:36:48.088Z,1.00
2019-01-22T11:39:19.453Z,1.00
2019-01-22T11:41:50.870Z,1.00
2019-01-22T11:44:22.253Z,1.10
2019-01-22T11:47:05.217Z,1.10
2019-01-22T11:49:36.645Z,1.10
2019-01-22T11:52:08.067Z,1.10
2019-01-22T11:54:39.348Z,1.20
2019-01-22T11:57:10.937Z,1.20
2019-01-22T11:59:42.348Z,1.20
2019-01-22T12:02:13.821Z,1.10
2019-01-22T12:04:45.270Z,1.20
2019-01-22T12:07:16.689Z,1.20
2019-01-22T12:09:59.400Z,1.20
2019-01-22T12:12:30.944Z,1.20
2019-01-22T12:15:02.332Z,1.30
2019-01-22T12:17:33.908Z,1.30
2019-01-22T12:20:08.954Z,1.30
2019-01-22T12:22:40.418Z,1.30
2019-01-22T12:25:11.881Z,1.40
2019-01-22T12:27:55.408Z,1.40
2019-01-22T12:30:29.066Z,1.40
2019-01-22T12:33:00.456Z,1.40
2019-01-22T12:35:31.983Z,1.40
2019-01-22T12:38:03.359Z,1.40
2019-01-22T12:40:34.740Z,1.40
2019-01-22T12:43:06.732Z,1.50
2019-01-22T12:45:39.256Z,1.50
2019-01-22T12:48:10.840Z,1.50
2019-01-22T12:50:42.485Z,1.60
2019-01-22T12:53:14.290Z,1.60
2019-01-22T12:55:45.700Z,1.70
2019-01-22T12:58:17.153Z,1.70
2019-01-22T13:00:48.661Z,1.70
2019-01-22T13:03:20.011Z,1.70
2019-01-22T13:05:54.665Z,1.70
2019-01-22T13:08:26.101Z,1.70
2019-01-22T13:10:57.438Z,1.70
2019-01-22T13:13:28.826Z,1.70
2019-01-22T13:16:00.173Z,1.70
2019-01-22T13:18:31.665Z,1.70
2019-01-22T13:21:03.061Z,1.70
2019-01-22T13:23:34.478Z,1.70
2019-01-22T13:26:11.484Z,1.80
2019-01-22T13:28:39.229Z,1.80
2019-01-22T13:31:10.658Z,1.80
2019-01-22T13:33:42.064Z,1.90
2019-01-22T13:36:13.429Z,1.90
2019-01-22T13:41:08.224Z,2.00
2019-01-22T13:43:39.588Z,2.00
2019-01-22T13:46:11.098Z,2.00
2019-01-22T13:48:43.385Z,2.00
2019-01-22T13:51:14.823Z,1.90
2019-01-22T13:53:46.185Z,1.90
2019-01-22T13:56:18.678Z,1.90
2019-01-22T13:58:50.265Z,1.90
2019-01-22T14:01:21.689Z,2.00
2019-01-22T14:03:53.082Z,1.90
2019-01-22T14:06:24.473Z,1.90
2019-01-22T14:08:55.868Z,1.90
2019-01-22T14:11:39.393Z,1.90
2019-01-22T14:14:10.673Z,1.80
2019-01-22T14:16:42.101Z,1.80
2019-01-22T14:19:13.561Z,1.80
2019-01-22T14:21:44.942Z,1.80
2019-01-22T14:24:16.900Z,1.70
2019-01-22T14:26:48.887Z,1.70
2019-01-22T14:29:20.272Z,1.70
2019-01-22T14:32:03.373Z,1.60
2019-01-22T14:34:35.008Z,1.70
2019-01-22T14:37:06.462Z,1.60
2019-01-22T14:39:37.740Z,1.60
2019-01-22T14:42:09.138Z,1.60
2019-01-22T14:44:40.401Z,1.50
2019-01-22T14:47:11.814Z,1.50
2019-01-22T14:49:43.978Z,1.40
2019-01-22T14:52:15.403Z,1.40
2019-01-22T14:54:46.688Z,1.40
2019-01-22T14:57:21.487Z,1.40
2019-01-22T14:59:51.342Z,1.40
2019-01-22T15:02:34.989Z,1.40
2019-01-22T15:05:09.569Z,1.40
2019-01-22T15:07:41.094Z,1.40
2019-01-22T15:10:13.406Z,1.40
2019-01-22T15:12:45.904Z,1.40
2019-01-22T15:15:18.513Z,1.40
2019-01-22T15:18:02.427Z,1.40
2019-01-22T15:20:33.950Z,1.50
2019-01-22T15:23:18.768Z,1.50
2019-01-22T15:25:50.195Z,1.50
2019-01-22T15:28:21.617Z,1.50
2019-01-22T15:30:53.037Z,1.50
2019-01-22T15:33:24.428Z,1.40
2019-01-22T15:35:55.917Z,1.40
2019-01-22T15:38:27.474Z,1.40
2019-01-22T15:40:58.836Z,1.30
2019-01-22T15:43:30.278Z,1.20
2019-01-22T15:46:03.748Z,1.20
2019-01-22T15:48:35.222Z,1.20
2019-01-22T15:51:06.640Z,1.20
2019-01-22T15:53:38.862Z,1.10
2019-01-22T15:56:10.369Z,1.00
2019-01-22T15:58:41.761Z,1.00
2019-01-22T16:01:25.400Z,1.00
2019-01-22T16:04:08.917Z,0.90
2019-01-22T16:06:51.974Z,0.90
2019-01-22T16:09:23.542Z,0.80
2019-01-22T16:11:56.213Z,0.80
2019-01-22T16:14:39.965Z,0.80
2019-01-22T16:17:11.400Z,0.80
2019-01-22T16:19:42.812Z,0.80
2019-01-22T16:22:14.385Z,0.80
2019-01-22T16:24:58.243Z,0.90
2019-01-22T16:27:41.664Z,0.90
2019-01-22T16:30:15.934Z,0.90
2019-01-22T16:32:48.643Z,1.00
2019-01-22T16:35:23.008Z,0.90
2019-01-22T16:37:57.480Z,0.90
2019-01-22T16:40:40.777Z,0.90
2019-01-22T16:43:33.947Z,0.90
2019-01-22T16:46:05.696Z,0.90
2019-01-22T16:48:39.087Z,0.90
2019-01-22T16:51:10.869Z,0.90
2019-01-22T16:53:42.254Z,0.90
2019-01-22T16:56:13.692Z,0.90
2019-01-22T16:58:56.684Z,0.90
2019-01-22T17:01:39.690Z,0.80
2019-01-22T17:04:11.975Z,0.80
2019-01-22T17:06:55.545Z,0.80
2019-01-22T17:09:27.045Z,0.80
2019-01-22T17:12:10.214Z,0.80
2019-01-22T17:14:53.616Z,0.80
2019-01-22T17:17:25.474Z,0.80
2019-01-22T17:19:56.916Z,0.80
2019-01-22T17:22:40.742Z,0.80
2019-01-22T17:25:23.618Z,0.80
2019-01-22T17:27:55.297Z,0.80
2019-01-22T17:30:38.659Z,0.80
2019-01-22T17:33:29.564Z,0.70
2019-01-22T17:36:04.588Z,0.80
2019-01-22T17:38:56.824Z,0.80
2019-01-22T17:41:47.374Z,0.70
2019-01-22T17:44:18.784Z,0.70
2019-01-22T17:46:50.224Z,0.70
2019-01-22T17:49:22.270Z,0.70
2019-01-22T17:51:53.640Z,0.60
2019-01-22T17:54:25.149Z,0.60
2019-01-22T17:57:13.657Z,0.60
2019-01-22T17:59:53.121Z,0.60
2019-01-22T18:02:24.600Z,0.50
2019-01-22T18:04:56.028Z,0.50
2019-01-22T18:07:30.376Z,0.40
2019-01-22T18:10:13.850Z,0.40
2019-01-22T18:12:45.209Z,0.40
2019-01-22T18:15:17.661Z,0.40
2019-01-22T18:17:49.062Z,0.40
2019-01-22T18:20:32.438Z,0.50
2019-01-22T18:23:15.664Z,0.50
2019-01-22T18:25:47.169Z,0.50
2019-01-22T18:28:18.847Z,0.50
2019-01-22T18:30:50.282Z,0.60
2019-01-22T18:33:21.683Z,0.60
2019-01-22T18:35:54.146Z,0.60
2019-01-22T18:38:25.516Z,0.60
2019-01-22T18:40:57.017Z,0.60
2019-01-22T18:43:28.364Z,0.60
2019-01-22T18:46:00.098Z,0.60
2019-01-22T18:48:31.476Z,0.60
2019-01-22T18:51:15.768Z,0.50
2019-01-22T18:53:47.277Z,0.50
2019-01-22T18:56:30.074Z,0.50
2019-01-22T18:59:01.465Z,0.50
2019-01-22T19:01:44.814Z,0.50
2019-01-22T19:04:16.275Z,0.60
2019-01-22T19:06:47.695Z,0.60
2019-01-22T19:09:19.068Z,0.60
2019-01-22T19:11:50.530Z,0.70
2019-01-22T19:14:33.755Z,0.70
2019-01-22T19:17:05.140Z,0.70
2019-01-22T19:19:37.656Z,0.70
2019-01-22T19:22:09.097Z,0.70
2019-01-22T19:24:40.329Z,0.80
2019-01-22T19:27:11.740Z,0.80
2019-01-22T19:29:45.870Z,0.80
2019-01-22T19:32:17.312Z,0.80
2019-01-22T19:34:48.782Z,0.80
2019-01-22T19:37:20.162Z,0.80
2019-01-22T19:39:51.515Z,0.80
2019-01-22T19:42:35.106Z,0.80
2019-01-22T19:45:09.931Z,0.90
2019-01-22T19:47:41.467Z,0.80
2019-01-22T19:50:24.565Z,0.80
2019-01-22T19:52:55.971Z,0.90
2019-01-22T19:55:27.380Z,0.90
2019-01-22T19:57:58.801Z,0.80
2019-01-22T20:00:32.601Z,0.80
2019-01-22T20:03:05.601Z,0.80
2019-01-22T20:05:37.945Z,0.70
2019-01-22T20:08:20.741Z,0.70
2019-01-22T20:11:04.110Z,0.70
2019-01-22T20:13:35.535Z,0.70
2019-01-22T20:16:06.927Z,0.70
2019-01-22T20:18:38.559Z,0.70
2019-01-22T20:21:22.185Z,0.70
2019-01-22T20:23:53.620Z,0.70
2019-01-22T20:26:37.221Z,0.70
2019-01-22T20:29:20.920Z,0.70
2019-01-22T20:32:04.438Z,0.70
2019-01-22T20:34:47.629Z,0.70
2019-01-22T20:37:30.549Z,0.70
2019-01-22T20:40:13.625Z,0.70
2019-01-22T20:42:56.353Z,0.70
2019-01-22T20:45:39.857Z,0.70
2019-01-22T20:48:26.124Z,0.70
2019-01-22T20:51:08.830Z,0.70
2019-01-22T20:53:51.602Z,0.60
2019-01-22T20:56:34.972Z,0.60
2019-01-22T20:59:18.360Z,0.70
2019-01-22T21:01:49.668Z,0.70
2019-01-22T21:04:21.036Z,0.70
2019-01-22T21:06:52.536Z,0.70
2019-01-22T21:09:43.077Z,0.70
2019-01-22T21:12:14.467Z,0.70
2019-01-22T21:14:45.785Z,0.70
2019-01-22T21:17:17.205Z,0.70
2019-01-22T21:19:48.924Z,0.70
2019-01-22T21:22:20.434Z,0.70
2019-01-22T21:25:11.617Z,0.70
2019-01-22T21:28:01.300Z,0.70
2019-01-22T21:30:39.634Z,0.70
2019-01-22T21:33:23.122Z,0.70
2019-01-22T21:36:06.233Z,0.70
2019-01-22T21:38:49.498Z,0.70
2019-01-22T21:41:33.052Z,0.70
2019-01-22T21:44:16.105Z,0.70
2019-01-22T21:47:01.122Z,0.70
2019-01-22T21:49:44.184Z,0.60
2019-01-22T21:52:27.412Z,0.70
2019-01-22T21:55:10.660Z,0.70
2019-01-22T21:57:53.364Z,0.70
2019-01-22T22:00:36.923Z,0.70
2019-01-22T22:03:18.521Z,0.80
2019-01-22T22:06:02.024Z,0.70
2019-01-22T22:08:45.199Z,0.80
2019-01-22T22:11:28.109Z,0.80
2019-01-22T22:14:11.305Z,0.80
2019-01-22T22:16:54.503Z,0.80
2019-01-22T22:19:37.285Z,0.80
2019-01-22T22:22:20.166Z,0.80
2019-01-22T22:25:03.450Z,0.80
2019-01-22T22:27:47.030Z,0.70
2019-01-22T22:30:29.964Z,0.70
2019-01-22T22:33:13.170Z,0.70
2019-01-22T22:35:56.615Z,0.70
2019-01-22T22:38:40.142Z,0.60
2019-01-22T22:41:23.174Z,0.50
2019-01-22T22:44:06.121Z,0.50
2019-01-22T22:46:49.008Z,0.40
2019-01-22T22:49:32.277Z,0.30
2019-01-22T22:52:15.206Z,0.30
2019-01-22T22:54:58.644Z,0.30
2019-01-22T22:57:42.239Z,0.20
2019-01-22T23:00:46.135Z,0.20
2019-01-22T23:03:41.475Z,0.10
2019-01-22T23:06:24.637Z,0.00
2019-01-22T23:09:10.822Z,0.00
2019-01-22T23:11:53.778Z,-0.10
2019-01-22T23:14:36.521Z,-0.10
2019-01-22T23:17:19.594Z,-0.20
2019-01-22T23:20:02.681Z,-0.20
2019-01-22T23:22:46.737Z,-0.20
2019-01-22T23:25:29.669Z,-0.30
2019-01-22T23:28:14.113Z,-0.30
2019-01-22T23:30:57.493Z,-0.30
2019-01-22T23:33:40.465Z,-0.40
2019-01-22T23:36:23.877Z,-0.40
2019-01-22T23:39:07.186Z,-0.40
2019-01-22T23:41:50.700Z,-0.50
2019-01-22T23:44:33.771Z,-0.50
2019-01-22T23:47:17.374Z,-0.50
2019-01-22T23:50:00.325Z,-0.50
2019-01-22T23:52:43.516Z,-0.60
2019-01-22T23:55:27.097Z,-0.60
2019-01-22T23:58:10.361Z,-0.60
